sensor_id;sensor_type;location;lat;lon;timestamp;P1;P2;P0
60058;PMS7003;45932;50.658;3.022;2022-12-18T00:02:21;67.00;51.00;31.50
60058;PMS7003;45932;50.658;3.022;2022-12-18T00:04:47;69.00;54.50;33.00
60058;PMS7003;45932;50.658;3.022;2022-12-18T00:07:12;63.50;50.00;31.50
60058;PMS7003;45932;50.658;3.022;2022-12-18T00:09:37;68.50;52.00;32.25
60058;PMS7003;45932;50.658;3.022;2022-12-18T00:12:03;61.75;51.25;33.00
60058;PMS7003;45932;50.658;3.022;2022-12-18T00:14:28;67.75;50.50;32.50
60058;PMS7003;45932;50.658;3.022;2022-12-18T00:16:54;63.50;51.25;32.00
60058;PMS7003;45932;50.658;3.022;2022-12-18T00:19:19;70.25;51.50;32.25
60058;PMS7003;45932;50.658;3.022;2022-12-18T00:21:44;69.50;53.25;33.50
60058;PMS7003;45932;50.658;3.022;2022-12-18T00:24:10;66.00;50.75;33.00
60058;PMS7003;45932;50.658;3.022;2022-12-18T00:26:36;72.00;53.50;34.00
60058;PMS7003;45932;50.658;3.022;2022-12-18T00:29:03;61.25;46.75;28.50
60058;PMS7003;45932;50.658;3.022;2022-12-18T00:31:31;68.50;52.50;32.25
60058;PMS7003;45932;50.658;3.022;2022-12-18T00:33:57;71.00;52.50;32.00
60058;PMS7003;45932;50.658;3.022;2022-12-18T00:36:24;56.00;40.75;15.75
60058;PMS7003;45932;50.658;3.022;2022-12-18T00:38:51;66.25;50.00;32.75
60058;PMS7003;45932;50.658;3.022;2022-12-18T00:41:18;68.25;53.75;32.25
60058;PMS7003;45932;50.658;3.022;2022-12-18T00:44:03;69.00;52.75;34.50
60058;PMS7003;45932;50.658;3.022;2022-12-18T00:46:30;67.50;51.25;34.00
60058;PMS7003;45932;50.658;3.022;2022-12-18T00:48:56;65.00;51.75;32.25
60058;PMS7003;45932;50.658;3.022;2022-12-18T00:51:21;70.75;54.00;32.75
60058;PMS7003;45932;50.658;3.022;2022-12-18T00:53:46;72.75;55.00;34.00
60058;PMS7003;45932;50.658;3.022;2022-12-18T00:56:12;68.00;53.25;33.50
60058;PMS7003;45932;50.658;3.022;2022-12-18T00:58:37;70.50;54.75;33.00
60058;PMS7003;45932;50.658;3.022;2022-12-18T01:01:06;69.50;54.00;34.00
60058;PMS7003;45932;50.658;3.022;2022-12-18T01:03:31;71.00;52.00;32.75
60058;PMS7003;45932;50.658;3.022;2022-12-18T01:05:57;64.25;53.00;33.00
60058;PMS7003;45932;50.658;3.022;2022-12-18T01:08:23;63.00;51.00;33.25
60058;PMS7003;45932;50.658;3.022;2022-12-18T01:10:48;64.75;51.75;31.00
60058;PMS7003;45932;50.658;3.022;2022-12-18T01:13:14;61.25;49.25;32.00
60058;PMS7003;45932;50.658;3.022;2022-12-18T01:15:39;68.50;52.75;35.00
60058;PMS7003;45932;50.658;3.022;2022-12-18T01:18:05;65.50;50.00;32.00
60058;PMS7003;45932;50.658;3.022;2022-12-18T01:20:31;68.50;54.00;33.75
60058;PMS7003;45932;50.658;3.022;2022-12-18T01:22:56;65.75;52.00;31.75
60058;PMS7003;45932;50.658;3.022;2022-12-18T01:25:21;71.00;54.50;32.25
60058;PMS7003;45932;50.658;3.022;2022-12-18T01:27:47;69.50;52.50;34.00
60058;PMS7003;45932;50.658;3.022;2022-12-18T01:30:12;69.75;55.50;35.25
60058;PMS7003;45932;50.658;3.022;2022-12-18T01:32:37;64.50;51.00;32.00
60058;PMS7003;45932;50.658;3.022;2022-12-18T01:35:03;68.50;53.00;32.00
60058;PMS7003;45932;50.658;3.022;2022-12-18T01:37:28;71.25;53.50;34.50
60058;PMS7003;45932;50.658;3.022;2022-12-18T01:39:54;68.75;52.00;33.00
60058;PMS7003;45932;50.658;3.022;2022-12-18T01:42:19;65.25;50.75;31.25
60058;PMS7003;45932;50.658;3.022;2022-12-18T01:47:46;67.50;52.00;32.75
60058;PMS7003;45932;50.658;3.022;2022-12-18T01:52:50;66.75;52.25;33.75
60058;PMS7003;45932;50.658;3.022;2022-12-18T01:55:19;69.00;52.00;31.75
60058;PMS7003;45932;50.658;3.022;2022-12-18T01:57:47;67.75;52.00;34.00
60058;PMS7003;45932;50.658;3.022;2022-12-18T02:00:15;68.00;53.50;34.50
60058;PMS7003;45932;50.658;3.022;2022-12-18T02:02:44;65.00;52.75;33.25
60058;PMS7003;45932;50.658;3.022;2022-12-18T02:05:11;62.50;50.50;32.75
60058;PMS7003;45932;50.658;3.022;2022-12-18T02:07:46;67.25;52.25;34.00
60058;PMS7003;45932;50.658;3.022;2022-12-18T02:10:31;70.25;53.25;34.00
60058;PMS7003;45932;50.658;3.022;2022-12-18T02:16:12;73.50;56.00;36.25
60058;PMS7003;45932;50.658;3.022;2022-12-18T02:18:49;70.25;54.50;35.50
60058;PMS7003;45932;50.658;3.022;2022-12-18T02:21:23;70.75;56.75;37.00
60058;PMS7003;45932;50.658;3.022;2022-12-18T02:26:55;71.25;54.50;33.75
60058;PMS7003;45932;50.658;3.022;2022-12-18T02:29:26;62.75;51.50;33.00
60058;PMS7003;45932;50.658;3.022;2022-12-18T02:32:06;68.50;55.00;32.75
60058;PMS7003;45932;50.658;3.022;2022-12-18T02:34:37;68.50;52.50;33.75
60058;PMS7003;45932;50.658;3.022;2022-12-18T02:37:11;64.00;52.25;35.00
60058;PMS7003;45932;50.658;3.022;2022-12-18T02:39:40;66.25;53.50;33.00
60058;PMS7003;45932;50.658;3.022;2022-12-18T02:42:08;72.00;54.00;34.75
60058;PMS7003;45932;50.658;3.022;2022-12-18T02:44:35;72.00;55.25;37.75
60058;PMS7003;45932;50.658;3.022;2022-12-18T02:47:08;71.75;56.00;37.25
60058;PMS7003;45932;50.658;3.022;2022-12-18T03:01:08;65.50;50.75;31.00
60058;PMS7003;45932;50.658;3.022;2022-12-18T03:06:10;56.50;46.50;29.25
60058;PMS7003;45932;50.658;3.022;2022-12-18T03:08:44;65.75;51.50;31.25
60058;PMS7003;45932;50.658;3.022;2022-12-18T03:11:13;60.50;45.00;30.00
60058;PMS7003;45932;50.658;3.022;2022-12-18T03:13:46;67.25;52.00;34.00
60058;PMS7003;45932;50.658;3.022;2022-12-18T03:16:24;56.00;45.00;30.25
60058;PMS7003;45932;50.658;3.022;2022-12-18T03:18:54;62.75;49.00;31.75
60058;PMS7003;45932;50.658;3.022;2022-12-18T03:21:26;65.75;51.00;31.50
60058;PMS7003;45932;50.658;3.022;2022-12-18T03:23:54;63.50;48.25;30.75
60058;PMS7003;45932;50.658;3.022;2022-12-18T03:26:22;59.50;47.00;30.00
60058;PMS7003;45932;50.658;3.022;2022-12-18T03:28:55;63.50;48.50;32.00
60058;PMS7003;45932;50.658;3.022;2022-12-18T03:31:25;61.00;49.50;32.00
60058;PMS7003;45932;50.658;3.022;2022-12-18T03:33:56;58.75;45.75;31.00
60058;PMS7003;45932;50.658;3.022;2022-12-18T03:36:24;59.25;48.00;32.00
60058;PMS7003;45932;50.658;3.022;2022-12-18T03:38:50;62.00;45.50;32.00
60058;PMS7003;45932;50.658;3.022;2022-12-18T03:49:37;56.75;45.50;29.00
60058;PMS7003;45932;50.658;3.022;2022-12-18T03:52:12;56.00;45.25;29.25
60058;PMS7003;45932;50.658;3.022;2022-12-18T03:54:45;60.00;47.00;29.00
60058;PMS7003;45932;50.658;3.022;2022-12-18T03:57:18;54.00;44.75;28.75
60058;PMS7003;45932;50.658;3.022;2022-12-18T03:59:47;55.25;42.00;28.75
60058;PMS7003;45932;50.658;3.022;2022-12-18T04:02:18;55.50;43.75;28.50
60058;PMS7003;45932;50.658;3.022;2022-12-18T04:04:45;55.75;45.25;29.75
60058;PMS7003;45932;50.658;3.022;2022-12-18T04:07:14;59.00;45.00;28.50
60058;PMS7003;45932;50.658;3.022;2022-12-18T04:09:41;54.75;44.00;27.75
60058;PMS7003;45932;50.658;3.022;2022-12-18T04:12:08;54.25;45.25;27.00
60058;PMS7003;45932;50.658;3.022;2022-12-18T04:14:33;56.75;45.50;27.75
60058;PMS7003;45932;50.658;3.022;2022-12-18T04:17:00;54.25;43.25;27.00
60058;PMS7003;45932;50.658;3.022;2022-12-18T04:19:26;53.50;43.25;28.00
60058;PMS7003;45932;50.658;3.022;2022-12-18T04:21:51;53.75;42.25;27.75
60058;PMS7003;45932;50.658;3.022;2022-12-18T04:24:17;54.25;42.50;27.00
60058;PMS7003;45932;50.658;3.022;2022-12-18T04:26:42;53.75;44.50;29.25
60058;PMS7003;45932;50.658;3.022;2022-12-18T04:29:07;55.75;42.50;27.00
60058;PMS7003;45932;50.658;3.022;2022-12-18T04:31:32;51.25;40.00;26.00
60058;PMS7003;45932;50.658;3.022;2022-12-18T04:33:58;50.75;41.75;27.50
60058;PMS7003;45932;50.658;3.022;2022-12-18T04:36:23;51.75;43.00;27.00
60058;PMS7003;45932;50.658;3.022;2022-12-18T04:38:52;54.25;42.50;27.50
60058;PMS7003;45932;50.658;3.022;2022-12-18T04:41:17;56.75;44.50;28.00
60058;PMS7003;45932;50.658;3.022;2022-12-18T04:43:43;52.00;41.25;27.00
60058;PMS7003;45932;50.658;3.022;2022-12-18T04:46:08;51.50;41.00;30.00
60058;PMS7003;45932;50.658;3.022;2022-12-18T04:48:34;53.50;43.75;28.75
60058;PMS7003;45932;50.658;3.022;2022-12-18T04:51:00;53.25;44.00;27.25
60058;PMS7003;45932;50.658;3.022;2022-12-18T04:53:25;55.75;42.25;26.00
60058;PMS7003;45932;50.658;3.022;2022-12-18T04:56:02;42.25;37.75;24.75
60058;PMS7003;45932;50.658;3.022;2022-12-18T04:58:27;57.75;44.50;26.75
60058;PMS7003;45932;50.658;3.022;2022-12-18T05:00:52;53.25;42.25;26.50
60058;PMS7003;45932;50.658;3.022;2022-12-18T05:03:17;53.00;40.75;26.75
60058;PMS7003;45932;50.658;3.022;2022-12-18T05:05:43;49.75;40.75;27.00
60058;PMS7003;45932;50.658;3.022;2022-12-18T05:08:08;55.25;43.00;27.25
60058;PMS7003;45932;50.658;3.022;2022-12-18T05:10:34;42.75;35.50;23.00
60058;PMS7003;45932;50.658;3.022;2022-12-18T05:12:59;50.25;42.25;27.25
60058;PMS7003;45932;50.658;3.022;2022-12-18T05:15:30;51.00;41.75;27.75
60058;PMS7003;45932;50.658;3.022;2022-12-18T05:17:56;52.50;40.25;27.00
60058;PMS7003;45932;50.658;3.022;2022-12-18T05:20:21;49.75;39.25;25.75
60058;PMS7003;45932;50.658;3.022;2022-12-18T05:22:47;52.50;41.75;25.75
60058;PMS7003;45932;50.658;3.022;2022-12-18T05:25:12;44.75;36.50;21.75
60058;PMS7003;45932;50.658;3.022;2022-12-18T05:27:37;51.75;40.25;26.00
60058;PMS7003;45932;50.658;3.022;2022-12-18T05:30:02;50.25;40.00;26.00
60058;PMS7003;45932;50.658;3.022;2022-12-18T05:32:28;47.50;39.50;26.00
60058;PMS7003;45932;50.658;3.022;2022-12-18T05:34:53;49.00;38.75;26.25
60058;PMS7003;45932;50.658;3.022;2022-12-18T05:37:18;56.75;45.50;26.50
60058;PMS7003;45932;50.658;3.022;2022-12-18T05:39:43;54.50;41.75;27.50
60058;PMS7003;45932;50.658;3.022;2022-12-18T05:42:09;51.00;41.50;27.00
60058;PMS7003;45932;50.658;3.022;2022-12-18T05:44:34;48.00;40.00;26.00
60058;PMS7003;45932;50.658;3.022;2022-12-18T05:46:59;41.75;36.00;26.00
60058;PMS7003;45932;50.658;3.022;2022-12-18T05:49:25;45.00;37.75;23.00
60058;PMS7003;45932;50.658;3.022;2022-12-18T05:51:50;47.00;38.00;25.00
60058;PMS7003;45932;50.658;3.022;2022-12-18T05:54:15;50.50;42.50;25.75
60058;PMS7003;45932;50.658;3.022;2022-12-18T05:56:40;53.75;41.75;27.00
60058;PMS7003;45932;50.658;3.022;2022-12-18T05:59:05;41.50;37.00;23.50
60058;PMS7003;45932;50.658;3.022;2022-12-18T06:01:31;51.25;38.50;25.75
60058;PMS7003;45932;50.658;3.022;2022-12-18T06:03:56;49.00;39.25;27.00
60058;PMS7003;45932;50.658;3.022;2022-12-18T06:06:22;46.75;39.00;25.75
60058;PMS7003;45932;50.658;3.022;2022-12-18T06:08:48;54.50;40.25;26.00
60058;PMS7003;45932;50.658;3.022;2022-12-18T06:11:16;49.50;39.50;26.00
60058;PMS7003;45932;50.658;3.022;2022-12-18T06:13:41;49.25;36.50;24.75
60058;PMS7003;45932;50.658;3.022;2022-12-18T06:16:06;51.75;43.75;26.25
60058;PMS7003;45932;50.658;3.022;2022-12-18T06:18:33;50.00;39.25;24.75
60058;PMS7003;45932;50.658;3.022;2022-12-18T06:20:58;46.25;38.75;26.00
60058;PMS7003;45932;50.658;3.022;2022-12-18T06:23:24;42.00;35.25;22.50
60058;PMS7003;45932;50.658;3.022;2022-12-18T06:25:49;49.50;38.25;26.25
60058;PMS7003;45932;50.658;3.022;2022-12-18T06:28:14;47.75;40.00;26.25
60058;PMS7003;45932;50.658;3.022;2022-12-18T06:30:40;47.50;39.75;26.75
60058;PMS7003;45932;50.658;3.022;2022-12-18T06:33:07;48.00;40.00;26.25
60058;PMS7003;45932;50.658;3.022;2022-12-18T06:35:33;45.25;36.25;23.00
60058;PMS7003;45932;50.658;3.022;2022-12-18T06:37:58;50.00;40.75;27.00
60058;PMS7003;45932;50.658;3.022;2022-12-18T06:40:23;46.25;37.00;24.00
60058;PMS7003;45932;50.658;3.022;2022-12-18T06:42:48;44.50;37.25;23.75
60058;PMS7003;45932;50.658;3.022;2022-12-18T06:45:13;47.00;38.75;26.00
60058;PMS7003;45932;50.658;3.022;2022-12-18T06:47:39;38.75;34.75;24.50
60058;PMS7003;45932;50.658;3.022;2022-12-18T06:50:04;41.25;36.50;23.00
60058;PMS7003;45932;50.658;3.022;2022-12-18T06:52:31;46.00;38.00;24.25
60058;PMS7003;45932;50.658;3.022;2022-12-18T06:54:56;45.25;38.75;26.00
60058;PMS7003;45932;50.658;3.022;2022-12-18T06:57:21;41.25;36.50;24.00
60058;PMS7003;45932;50.658;3.022;2022-12-18T06:59:47;53.50;40.00;26.00
60058;PMS7003;45932;50.658;3.022;2022-12-18T07:02:12;47.25;39.25;25.00
60058;PMS7003;45932;50.658;3.022;2022-12-18T07:04:37;42.50;35.00;24.50
60058;PMS7003;45932;50.658;3.022;2022-12-18T07:07:02;44.25;37.25;23.25
60058;PMS7003;45932;50.658;3.022;2022-12-18T07:09:28;44.25;35.75;24.75
60058;PMS7003;45932;50.658;3.022;2022-12-18T07:11:53;50.50;42.25;25.50
60058;PMS7003;45932;50.658;3.022;2022-12-18T07:14:18;44.50;38.25;25.25
60058;PMS7003;45932;50.658;3.022;2022-12-18T07:16:44;37.50;36.00;24.75
60058;PMS7003;45932;50.658;3.022;2022-12-18T07:19:09;37.75;32.75;21.75
60058;PMS7003;45932;50.658;3.022;2022-12-18T07:21:34;46.00;37.25;26.00
60058;PMS7003;45932;50.658;3.022;2022-12-18T07:23:59;42.75;38.00;25.00
60058;PMS7003;45932;50.658;3.022;2022-12-18T07:26:24;42.50;34.50;23.25
60058;PMS7003;45932;50.658;3.022;2022-12-18T07:28:53;41.50;37.25;25.00
60058;PMS7003;45932;50.658;3.022;2022-12-18T07:31:20;44.00;38.00;25.00
60058;PMS7003;45932;50.658;3.022;2022-12-18T07:33:46;41.75;35.25;22.00
60058;PMS7003;45932;50.658;3.022;2022-12-18T07:36:11;42.75;35.50;23.50
60058;PMS7003;45932;50.658;3.022;2022-12-18T07:38:37;36.25;35.25;24.75
60058;PMS7003;45932;50.658;3.022;2022-12-18T07:41:06;45.75;38.00;24.25
60058;PMS7003;45932;50.658;3.022;2022-12-18T07:43:32;50.00;40.75;27.00
60058;PMS7003;45932;50.658;3.022;2022-12-18T07:45:57;43.50;37.00;26.00
60058;PMS7003;45932;50.658;3.022;2022-12-18T07:48:22;46.00;36.00;25.25
60058;PMS7003;45932;50.658;3.022;2022-12-18T07:50:48;53.25;42.00;27.00
60058;PMS7003;45932;50.658;3.022;2022-12-18T07:53:13;44.75;37.25;24.75
60058;PMS7003;45932;50.658;3.022;2022-12-18T07:55:39;51.00;40.00;26.75
60058;PMS7003;45932;50.658;3.022;2022-12-18T07:58:04;52.25;42.50;26.75
60058;PMS7003;45932;50.658;3.022;2022-12-18T08:00:30;52.50;40.25;28.00
60058;PMS7003;45932;50.658;3.022;2022-12-18T08:02:55;51.75;41.25;27.75
60058;PMS7003;45932;50.658;3.022;2022-12-18T08:05:21;51.75;42.75;28.50
60058;PMS7003;45932;50.658;3.022;2022-12-18T08:07:46;56.25;44.00;29.00
60058;PMS7003;45932;50.658;3.022;2022-12-18T08:10:11;43.00;39.00;27.00
60058;PMS7003;45932;50.658;3.022;2022-12-18T08:12:37;51.00;43.50;29.00
60058;PMS7003;45932;50.658;3.022;2022-12-18T08:15:02;54.50;44.50;29.25
60058;PMS7003;45932;50.658;3.022;2022-12-18T08:17:27;52.75;41.50;27.50
60058;PMS7003;45932;50.658;3.022;2022-12-18T08:19:52;52.50;43.00;29.00
60058;PMS7003;45932;50.658;3.022;2022-12-18T08:22:17;54.75;43.50;30.75
60058;PMS7003;45932;50.658;3.022;2022-12-18T08:24:43;52.00;42.50;28.75
60058;PMS7003;45932;50.658;3.022;2022-12-18T08:27:08;57.25;44.75;29.00
60058;PMS7003;45932;50.658;3.022;2022-12-18T08:29:33;53.00;42.75;29.75
60058;PMS7003;45932;50.658;3.022;2022-12-18T08:31:58;51.00;43.25;29.00
60058;PMS7003;45932;50.658;3.022;2022-12-18T08:34:24;54.25;44.00;27.00
60058;PMS7003;45932;50.658;3.022;2022-12-18T08:36:49;53.00;40.75;26.00
60058;PMS7003;45932;50.658;3.022;2022-12-18T08:39:14;57.25;46.50;28.00
60058;PMS7003;45932;50.658;3.022;2022-12-18T08:41:39;56.50;47.00;31.25
60058;PMS7003;45932;50.658;3.022;2022-12-18T08:44:06;55.00;45.00;29.00
60058;PMS7003;45932;50.658;3.022;2022-12-18T08:46:50;57.00;44.75;29.25
60058;PMS7003;45932;50.658;3.022;2022-12-18T08:49:15;58.75;45.75;30.75
60058;PMS7003;45932;50.658;3.022;2022-12-18T08:51:40;59.75;46.75;29.75
60058;PMS7003;45932;50.658;3.022;2022-12-18T08:54:06;57.00;47.50;30.50
60058;PMS7003;45932;50.658;3.022;2022-12-18T08:56:31;63.75;49.25;31.50
60058;PMS7003;45932;50.658;3.022;2022-12-18T08:58:56;55.25;44.50;27.75
60058;PMS7003;45932;50.658;3.022;2022-12-18T09:01:22;62.00;48.75;31.00
60058;PMS7003;45932;50.658;3.022;2022-12-18T09:03:50;62.75;48.75;32.00
60058;PMS7003;45932;50.658;3.022;2022-12-18T09:06:16;58.75;45.50;29.00
60058;PMS7003;45932;50.658;3.022;2022-12-18T09:08:45;56.75;46.25;28.75
60058;PMS7003;45932;50.658;3.022;2022-12-18T09:11:15;55.00;44.00;28.50
60058;PMS7003;45932;50.658;3.022;2022-12-18T09:13:41;60.00;48.75;31.75
60058;PMS7003;45932;50.658;3.022;2022-12-18T09:16:06;65.25;49.50;32.00
60058;PMS7003;45932;50.658;3.022;2022-12-18T09:18:31;59.00;45.50;29.50
60058;PMS7003;45932;50.658;3.022;2022-12-18T09:20:57;58.75;48.50;32.00
60058;PMS7003;45932;50.658;3.022;2022-12-18T09:23:22;57.25;48.00;31.75
60058;PMS7003;45932;50.658;3.022;2022-12-18T09:25:47;62.25;50.50;33.00
60058;PMS7003;45932;50.658;3.022;2022-12-18T09:28:15;63.00;51.00;33.00
60058;PMS7003;45932;50.658;3.022;2022-12-18T09:30:41;63.50;49.50;32.00
60058;PMS7003;45932;50.658;3.022;2022-12-18T09:33:06;65.00;48.00;32.00
60058;PMS7003;45932;50.658;3.022;2022-12-18T09:35:32;66.00;49.50;32.50
60058;PMS7003;45932;50.658;3.022;2022-12-18T09:37:57;59.75;49.25;31.75
60058;PMS7003;45932;50.658;3.022;2022-12-18T09:40:23;61.50;48.75;31.75
60058;PMS7003;45932;50.658;3.022;2022-12-18T09:42:54;64.75;48.50;32.00
60058;PMS7003;45932;50.658;3.022;2022-12-18T09:45:21;58.00;48.00;31.25
60058;PMS7003;45932;50.658;3.022;2022-12-18T09:47:47;61.75;47.75;31.00
60058;PMS7003;45932;50.658;3.022;2022-12-18T09:50:33;65.50;51.50;31.75
60058;PMS7003;45932;50.658;3.022;2022-12-18T09:53:04;59.25;45.25;29.00
60058;PMS7003;45932;50.658;3.022;2022-12-18T09:55:32;62.75;49.75;32.25
60058;PMS7003;45932;50.658;3.022;2022-12-18T09:58:00;62.25;50.00;31.75
60058;PMS7003;45932;50.658;3.022;2022-12-18T10:00:29;61.50;49.00;31.75
60058;PMS7003;45932;50.658;3.022;2022-12-18T10:03:13;62.75;49.00;32.00
60058;PMS7003;45932;50.658;3.022;2022-12-18T10:05:41;56.00;47.00;30.50
60058;PMS7003;45932;50.658;3.022;2022-12-18T10:08:17;57.50;44.75;28.50
60058;PMS7003;45932;50.658;3.022;2022-12-18T10:10:47;62.50;50.00;32.00
60058;PMS7003;45932;50.658;3.022;2022-12-18T10:13:21;53.75;42.25;26.25
60058;PMS7003;45932;50.658;3.022;2022-12-18T10:16:03;59.25;49.75;31.75
60058;PMS7003;45932;50.658;3.022;2022-12-18T10:21:05;62.75;47.25;30.75
60058;PMS7003;45932;50.658;3.022;2022-12-18T10:26:08;64.25;49.00;32.00
60058;PMS7003;45932;50.658;3.022;2022-12-18T10:28:35;61.25;48.25;31.75
60058;PMS7003;45932;50.658;3.022;2022-12-18T10:31:01;63.25;51.00;32.00
60058;PMS7003;45932;50.658;3.022;2022-12-18T10:33:30;58.50;46.75;29.00
60058;PMS7003;45932;50.658;3.022;2022-12-18T10:35:56;63.25;49.00;31.75
60058;PMS7003;45932;50.658;3.022;2022-12-18T10:38:23;63.25;50.00;32.00
60058;PMS7003;45932;50.658;3.022;2022-12-18T10:40:56;61.50;50.25;32.00
60058;PMS7003;45932;50.658;3.022;2022-12-18T10:48:26;57.75;43.00;23.75
60058;PMS7003;45932;50.658;3.022;2022-12-18T10:50:52;69.00;52.25;32.50
60058;PMS7003;45932;50.658;3.022;2022-12-18T10:53:22;62.75;49.00;31.00
60058;PMS7003;45932;50.658;3.022;2022-12-18T10:55:47;65.00;47.75;28.75
60058;PMS7003;45932;50.658;3.022;2022-12-18T10:58:32;59.50;47.50;31.00
60058;PMS7003;45932;50.658;3.022;2022-12-18T11:03:36;58.75;48.75;29.50
60058;PMS7003;45932;50.658;3.022;2022-12-18T11:06:06;61.75;47.75;31.50
60058;PMS7003;45932;50.658;3.022;2022-12-18T11:08:31;69.25;49.75;31.50
60058;PMS7003;45932;50.658;3.022;2022-12-18T11:10:57;68.25;52.50;32.00
60058;PMS7003;45932;50.658;3.022;2022-12-18T11:13:23;58.75;45.00;30.00
60058;PMS7003;45932;50.658;3.022;2022-12-18T11:15:50;64.50;50.25;31.75
60058;PMS7003;45932;50.658;3.022;2022-12-18T11:18:20;62.75;48.75;30.75
60058;PMS7003;45932;50.658;3.022;2022-12-18T11:20:51;63.25;48.75;31.25
60058;PMS7003;45932;50.658;3.022;2022-12-18T11:23:16;60.50;49.75;31.50
60058;PMS7003;45932;50.658;3.022;2022-12-18T11:25:50;64.00;50.00;31.00
60058;PMS7003;45932;50.658;3.022;2022-12-18T11:28:27;62.25;49.00;32.00
60058;PMS7003;45932;50.658;3.022;2022-12-18T11:34:04;60.25;47.75;30.00
60058;PMS7003;45932;50.658;3.022;2022-12-18T11:36:36;60.25;49.00;32.00
60058;PMS7003;45932;50.658;3.022;2022-12-18T11:39:07;69.00;54.50;34.25
60058;PMS7003;45932;50.658;3.022;2022-12-18T11:41:38;64.50;50.75;32.50
60058;PMS7003;45932;50.658;3.022;2022-12-18T11:49:54;66.25;51.00;32.75
60058;PMS7003;45932;50.658;3.022;2022-12-18T11:54:46;62.75;49.75;32.00
60058;PMS7003;45932;50.658;3.022;2022-12-18T11:57:15;63.00;50.00;32.00
60058;PMS7003;45932;50.658;3.022;2022-12-18T12:02:22;59.75;46.25;31.00
60058;PMS7003;45932;50.658;3.022;2022-12-18T12:07:25;59.75;46.75;30.25
60058;PMS7003;45932;50.658;3.022;2022-12-18T12:32:59;59.25;44.25;26.75
60058;PMS7003;45932;50.658;3.022;2022-12-18T12:40:34;56.25;46.75;30.75
60058;PMS7003;45932;50.658;3.022;2022-12-18T12:43:01;54.50;46.00;31.00
60058;PMS7003;45932;50.658;3.022;2022-12-18T12:50:58;58.00;44.50;26.75
60058;PMS7003;45932;50.658;3.022;2022-12-18T12:53:30;56.25;45.50;30.00
60058;PMS7003;45932;50.658;3.022;2022-12-18T12:55:57;61.00;48.25;30.50
60058;PMS7003;45932;50.658;3.022;2022-12-18T13:06:27;62.50;47.25;28.25
60058;PMS7003;45932;50.658;3.022;2022-12-18T13:08:59;56.75;44.50;27.50
60058;PMS7003;45932;50.658;3.022;2022-12-18T13:11:29;60.75;46.00;30.00
60058;PMS7003;45932;50.658;3.022;2022-12-18T13:14:20;60.25;49.25;30.00
60058;PMS7003;45932;50.658;3.022;2022-12-18T13:16:46;53.25;43.75;29.00
60058;PMS7003;45932;50.658;3.022;2022-12-18T13:19:19;60.75;47.50;28.00
60058;PMS7003;45932;50.658;3.022;2022-12-18T13:21:51;59.00;46.25;29.25
60058;PMS7003;45932;50.658;3.022;2022-12-18T13:24:23;61.00;49.00;29.75
60058;PMS7003;45932;50.658;3.022;2022-12-18T13:26:49;60.00;44.50;30.00
60058;PMS7003;45932;50.658;3.022;2022-12-18T13:29:39;56.00;43.50;28.00
60058;PMS7003;45932;50.658;3.022;2022-12-18T13:32:00;62.25;47.25;29.25
60058;PMS7003;45932;50.658;3.022;2022-12-18T13:34:26;51.25;42.00;27.00
60058;PMS7003;45932;50.658;3.022;2022-12-18T13:36:55;60.50;47.00;29.75
60058;PMS7003;45932;50.658;3.022;2022-12-18T13:39:25;57.50;44.75;30.00
60058;PMS7003;45932;50.658;3.022;2022-12-18T13:44:36;63.00;49.75;32.00
60058;PMS7003;45932;50.658;3.022;2022-12-18T13:47:02;61.00;49.00;29.75
60058;PMS7003;45932;50.658;3.022;2022-12-18T13:51:54;60.25;46.25;29.00
60058;PMS7003;45932;50.658;3.022;2022-12-18T13:56:46;55.25;46.00;30.00
60058;PMS7003;45932;50.658;3.022;2022-12-18T13:59:19;57.25;44.25;27.75
60058;PMS7003;45932;50.658;3.022;2022-12-18T14:04:18;58.25;46.50;29.25
60058;PMS7003;45932;50.658;3.022;2022-12-18T14:06:43;54.00;43.50;26.75
60058;PMS7003;45932;50.658;3.022;2022-12-18T14:09:11;63.25;49.50;31.25
60058;PMS7003;45932;50.658;3.022;2022-12-18T14:11:38;56.75;43.50;28.00
60058;PMS7003;45932;50.658;3.022;2022-12-18T14:14:03;55.25;43.00;26.25
60058;PMS7003;45932;50.658;3.022;2022-12-18T14:16:32;53.00;42.50;26.25
60058;PMS7003;45932;50.658;3.022;2022-12-18T14:18:57;56.75;42.75;24.00
60058;PMS7003;45932;50.658;3.022;2022-12-18T14:21:26;61.00;46.25;27.75
60058;PMS7003;45932;50.658;3.022;2022-12-18T14:26:36;59.50;46.25;29.75
60058;PMS7003;45932;50.658;3.022;2022-12-18T14:29:17;54.00;44.50;30.00
60058;PMS7003;45932;50.658;3.022;2022-12-18T14:31:42;65.75;49.75;31.00
60058;PMS7003;45932;50.658;3.022;2022-12-18T14:34:08;67.25;50.00;29.50
60058;PMS7003;45932;50.658;3.022;2022-12-18T14:36:39;59.00;47.00;28.00
60058;PMS7003;45932;50.658;3.022;2022-12-18T14:39:04;58.75;44.25;29.25
60058;PMS7003;45932;50.658;3.022;2022-12-18T14:41:30;57.25;46.50;28.75
60058;PMS7003;45932;50.658;3.022;2022-12-18T14:43:56;53.00;42.25;26.75
60058;PMS7003;45932;50.658;3.022;2022-12-18T14:46:39;58.75;46.75;29.25
60058;PMS7003;45932;50.658;3.022;2022-12-18T14:51:49;62.25;49.75;31.00
60058;PMS7003;45932;50.658;3.022;2022-12-18T14:54:16;60.00;46.25;29.50
60058;PMS7003;45932;50.658;3.022;2022-12-18T14:56:46;60.25;46.50;28.00
60058;PMS7003;45932;50.658;3.022;2022-12-18T14:59:15;58.00;46.25;27.00
60058;PMS7003;45932;50.658;3.022;2022-12-18T15:07:03;54.75;41.25;25.75
60058;PMS7003;45932;50.658;3.022;2022-12-18T15:09:29;52.75;39.75;29.50
60058;PMS7003;45932;50.658;3.022;2022-12-18T15:11:55;60.25;46.75;30.00
60058;PMS7003;45932;50.658;3.022;2022-12-18T15:14:21;62.50;48.25;30.75
60058;PMS7003;45932;50.658;3.022;2022-12-18T15:16:50;59.25;47.50;28.75
60058;PMS7003;45932;50.658;3.022;2022-12-18T15:19:16;56.25;44.75;29.25
60058;PMS7003;45932;50.658;3.022;2022-12-18T15:21:42;57.25;42.75;27.00
60058;PMS7003;45932;50.658;3.022;2022-12-18T15:24:13;59.25;45.75;27.75
60058;PMS7003;45932;50.658;3.022;2022-12-18T15:26:41;58.00;45.00;27.75
60058;PMS7003;45932;50.658;3.022;2022-12-18T15:29:15;57.50;47.50;28.75
60058;PMS7003;45932;50.658;3.022;2022-12-18T15:31:43;58.75;45.75;26.75
60058;PMS7003;45932;50.658;3.022;2022-12-18T15:34:12;61.00;44.75;28.00
60058;PMS7003;45932;50.658;3.022;2022-12-18T15:36:38;60.00;47.25;28.75
60058;PMS7003;45932;50.658;3.022;2022-12-18T15:39:04;56.75;45.75;28.25
60058;PMS7003;45932;50.658;3.022;2022-12-18T15:41:30;61.75;45.75;27.75
60058;PMS7003;45932;50.658;3.022;2022-12-18T15:43:55;49.25;40.25;27.00
60058;PMS7003;45932;50.658;3.022;2022-12-18T15:46:21;59.00;43.25;27.50
60058;PMS7003;45932;50.658;3.022;2022-12-18T15:48:51;53.50;42.00;23.00
60058;PMS7003;45932;50.658;3.022;2022-12-18T15:51:17;54.25;42.00;26.25
60058;PMS7003;45932;50.658;3.022;2022-12-18T15:53:43;52.25;43.25;26.25
60058;PMS7003;45932;50.658;3.022;2022-12-18T15:56:13;56.50;43.00;26.00